Time;durP1;ratioP1;P1;durP2;ratioP2;P2;SDS_P1;SDS_P2;PMS_P1;PMS_P2;Temp;Humidity;BMP_temperature;BMP_pressure;BME280_temperature;BME280_humidity;BME280_pressure;Samples;Min_cycle;Max_cycle;Signal;HPM_P1;HPM_P2
2022/11/27 00:04:57;;;;;;;48.73;23.63;;;3.30;99.90;;;;;;10519390;28;20219;-81
2022/11/27 00:10:18;;;;;;;42.40;21.97;;;3.30;99.90;;;;;;10518682;28;20207;-81
2022/11/27 00:15:40;;;;;;;45.70;22.83;;;3.40;99.90;;;;;;10504195;28;20235;-81
2022/11/27 00:21:03;;;;;;;45.07;22.37;;;3.40;99.90;;;;;;10504421;28;20231;-81
2022/11/27 00:26:26;;;;;;;39.27;20.37;;;3.40;99.90;;;;;;10518964;28;20192;-81
2022/11/27 00:31:47;;;;;;;31.80;17.80;;;3.40;99.90;;;;;;10518437;28;20202;-81
2022/11/27 00:37:09;;;;;;;38.00;18.67;;;3.40;99.90;;;;;;10518434;28;20219;-82
2022/11/27 00:42:30;;;;;;;33.40;18.47;;;3.50;99.90;;;;;;10529256;28;20191;-81
2022/11/27 00:47:51;;;;;;;38.03;18.00;;;3.50;99.90;;;;;;10529650;28;20200;-81
2022/11/27 00:53:12;;;;;;;30.63;16.50;;;3.50;99.90;;;;;;10503854;28;20250;-81
2022/11/27 00:58:34;;;;;;;25.27;15.13;;;3.50;99.90;;;;;;10504007;28;20297;-81
2022/11/27 01:03:58;;;;;;;28.47;15.57;;;3.50;99.90;;;;;;10503951;28;20427;-82
2022/11/27 01:09:19;;;;;;;27.10;15.53;;;3.50;99.90;;;;;;10517818;28;20214;-81
2022/11/27 01:14:40;;;;;;;37.23;17.77;;;3.50;99.90;;;;;;10517454;28;20607;-81
2022/11/27 01:20:01;;;;;;;27.30;15.23;;;3.50;99.90;;;;;;10501872;28;20224;-80
2022/11/27 01:25:23;;;;;;;33.70;18.43;;;3.50;99.90;;;;;;10509180;28;20196;-80
2022/11/27 01:30:47;;;;;;;38.80;20.27;;;3.50;99.90;;;;;;10510713;28;20211;-81
2022/11/27 01:36:09;;;;;;;36.77;20.10;;;3.40;99.90;;;;;;10524525;28;20246;-81
2022/11/27 01:41:35;;;;;;;41.63;20.57;;;3.40;99.90;;;;;;10512712;28;20223;-81
2022/11/27 01:47:02;;;;;;;39.67;21.23;;;3.30;99.90;;;;;;10543747;28;20243;-81
2022/11/27 01:52:28;;;;;;;32.53;19.70;;;3.30;99.90;;;;;;10522486;28;20286;-81
2022/11/27 01:57:55;;;;;;;35.20;20.27;;;3.30;99.90;;;;;;10524233;28;20579;-81
2022/11/27 02:03:16;;;;;;;35.40;18.93;;;3.30;99.90;;;;;;10509267;28;20204;-81
2022/11/27 02:08:38;;;;;;;37.03;21.20;;;3.40;99.90;;;;;;10524628;28;20203;-81
2022/11/27 02:14:08;;;;;;;39.47;21.07;;;3.30;99.90;;;;;;10494853;28;20240;-81
2022/11/27 02:19:51;;;;;;;31.80;17.97;;;3.30;99.90;;;;;;10508278;28;20261;-81
2022/11/27 02:25:31;;;;;;;33.53;19.20;;;3.30;99.90;;;;;;10494516;28;20200;-81
2022/11/27 02:31:02;;;;;;;34.03;18.23;;;3.30;99.90;;;;;;10508271;28;20445;-81
2022/11/27 02:36:30;;;;;;;30.93;18.73;;;3.30;99.90;;;;;;10508541;28;20239;-80
2022/11/27 02:42:15;;;;;;;31.13;18.27;;;3.30;99.90;;;;;;10527651;28;20192;-80
2022/11/27 02:47:39;;;;;;;36.43;21.17;;;3.30;99.90;;;;;;10535031;28;20196;-81
2022/11/27 02:53:05;;;;;;;39.87;22.53;;;3.30;99.90;;;;;;10493522;28;20271;-81
2022/11/27 02:58:28;;;;;;;40.00;22.60;;;3.30;99.90;;;;;;10507484;28;20226;-80
2022/11/27 03:03:57;;;;;;;41.93;21.13;;;3.40;99.90;;;;;;10507235;28;20193;-80
2022/11/27 03:09:23;;;;;;;47.23;23.97;;;3.40;99.90;;;;;;10506887;28;20274;-81
2022/11/27 03:14:45;;;;;;;51.07;23.37;;;3.50;99.90;;;;;;10506151;28;20239;-81
2022/11/27 03:20:26;;;;;;;53.67;22.67;;;3.50;99.90;;;;;;10505983;28;20224;-80
2022/11/27 03:25:47;;;;;;;54.87;24.03;;;3.50;99.90;;;;;;10506180;28;20226;-81
2022/11/27 03:31:09;;;;;;;57.77;23.93;;;3.50;99.90;;;;;;10505511;28;20398;-81
2022/11/27 03:36:30;;;;;;;46.40;21.97;;;3.40;99.90;;;;;;10505655;28;20273;-80
2022/11/27 03:42:05;;;;;;;51.57;24.57;;;3.50;99.90;;;;;;10530323;28;20267;-81
2022/11/27 03:47:38;;;;;;;51.17;23.13;;;3.50;99.90;;;;;;10548219;28;20188;-81
2022/11/27 03:53:38;;;;;;;47.97;21.83;;;3.50;99.90;;;;;;10478406;28;20216;-81
2022/11/27 03:59:28;;;;;;;41.97;21.77;;;3.50;99.90;;;;;;10433707;28;20271;-81
2022/11/27 04:04:49;;;;;;;33.90;18.60;;;3.50;99.90;;;;;;10433877;28;20532;-81
2022/11/27 04:10:11;;;;;;;32.13;17.13;;;3.60;99.90;;;;;;10419583;28;20217;-81
2022/11/27 04:15:32;;;;;;;34.47;18.00;;;3.70;99.90;;;;;;10437231;28;20293;-80
2022/11/27 04:20:54;;;;;;;31.37;17.37;;;3.70;99.90;;;;;;10430455;28;20307;-80
2022/11/27 04:26:15;;;;;;;36.07;19.33;;;3.70;99.90;;;;;;10474833;28;20211;-80
2022/11/27 04:31:36;;;;;;;30.10;17.57;;;3.60;99.90;;;;;;10468400;28;20207;-80
2022/11/27 04:36:58;;;;;;;39.60;19.93;;;3.70;99.90;;;;;;10490432;28;20229;-81
2022/11/27 04:42:20;;;;;;;31.23;17.00;;;3.70;99.90;;;;;;10527263;28;20190;-80
2022/11/27 04:47:41;;;;;;;32.70;17.47;;;3.70;99.90;;;;;;10545177;28;20188;-81
2022/11/27 04:53:02;;;;;;;32.07;17.90;;;3.60;99.90;;;;;;10518551;28;20505;-81
2022/11/27 04:58:23;;;;;;;31.80;17.93;;;3.60;99.90;;;;;;10506748;28;20521;-81
2022/11/27 05:03:46;;;;;;;42.53;21.97;;;3.50;99.90;;;;;;10526068;28;20250;-80
2022/11/27 05:09:07;;;;;;;40.40;23.60;;;3.40;99.90;;;;;;10525828;28;20223;-80
2022/11/27 05:14:29;;;;;;;43.73;24.53;;;3.40;99.90;;;;;;10525380;28;20392;-81
2022/11/27 05:19:50;;;;;;;45.37;24.27;;;3.40;99.90;;;;;;10496890;28;20224;-81
2022/11/27 05:25:11;;;;;;;44.83;24.93;;;3.30;99.90;;;;;;10525207;28;20479;-80
2022/11/27 05:30:33;;;;;;;47.67;25.30;;;3.30;99.90;;;;;;10525301;28;20193;-80
2022/11/27 05:35:54;;;;;;;39.07;22.13;;;3.30;99.90;;;;;;10524805;28;20212;-80
2022/11/27 05:41:15;;;;;;;37.40;21.50;;;3.30;99.90;;;;;;10484482;28;20216;-80
2022/11/27 05:46:36;;;;;;;35.93;21.27;;;3.30;99.90;;;;;;10561643;28;20196;-81
2022/11/27 05:51:57;;;;;;;37.33;20.40;;;3.30;99.90;;;;;;10495782;28;20192;-80
2022/11/27 05:57:19;;;;;;;38.37;20.87;;;3.30;99.90;;;;;;10509485;28;20406;-81
2022/11/27 06:02:40;;;;;;;37.00;19.40;;;3.40;99.90;;;;;;10524083;28;20280;-81
2022/11/27 06:08:01;;;;;;;30.90;18.27;;;3.40;99.90;;;;;;10523408;28;20218;-81
2022/11/27 06:13:23;;;;;;;33.10;18.00;;;3.30;99.90;;;;;;10523354;28;20211;-80
2022/11/27 06:18:44;;;;;;;33.80;19.17;;;3.30;99.90;;;;;;10523595;28;20289;-81
2022/11/27 06:24:06;;;;;;;34.47;20.43;;;3.20;99.90;;;;;;10522899;28;20486;-81
2022/11/27 06:29:27;;;;;;;38.47;21.87;;;3.20;99.90;;;;;;10522912;28;20196;-80
2022/11/27 06:34:48;;;;;;;50.53;28.27;;;3.20;99.90;;;;;;10522637;28;20187;-80
2022/11/27 06:40:10;;;;;;;54.37;28.97;;;3.20;99.90;;;;;;10507899;28;20225;-81
2022/11/27 06:45:32;;;;;;;49.80;27.40;;;3.20;99.90;;;;;;10544139;28;20191;-81
2022/11/27 06:50:53;;;;;;;50.93;28.97;;;3.30;99.90;;;;;;10466423;28;20192;-81
2022/11/27 06:56:18;;;;;;;46.87;29.43;;;3.30;99.90;;;;;;10482441;28;20208;-81
2022/11/27 07:01:40;;;;;;;68.37;38.20;;;3.20;99.90;;;;;;10493917;28;20280;-81
2022/11/27 07:07:01;;;;;;;60.97;37.37;;;3.20;99.90;;;;;;10493743;28;20197;-81
2022/11/27 07:12:23;;;;;;;69.80;41.97;;;3.20;99.90;;;;;;10508129;28;20451;-81
2022/11/27 07:17:44;;;;;;;65.30;41.07;;;3.20;99.90;;;;;;10514886;28;20259;-79
2022/11/27 07:23:05;;;;;;;60.70;37.13;;;3.20;99.90;;;;;;10519809;28;20476;-80
2022/11/27 07:28:26;;;;;;;68.97;44.00;;;3.20;99.90;;;;;;10520508;28;20199;-81
2022/11/27 07:33:48;;;;;;;98.70;60.97;;;3.30;99.90;;;;;;10505943;28;20383;-80
2022/11/27 07:39:09;;;;;;;88.80;57.10;;;3.40;99.90;;;;;;10505452;28;20531;-80
2022/11/27 07:44:30;;;;;;;82.37;49.10;;;3.40;99.90;;;;;;10519064;28;20202;-79
2022/11/27 07:49:53;;;;;;;61.83;41.80;;;3.50;99.90;;;;;;10514126;28;20224;-80
2022/11/27 07:55:15;;;;;;;56.27;34.33;;;3.50;99.90;;;;;;10505464;28;20201;-81
2022/11/27 08:00:36;;;;;;;61.87;41.07;;;3.50;99.90;;;;;;10519484;28;20233;-80
2022/11/27 08:05:57;;;;;;;62.20;38.10;;;3.40;99.90;;;;;;10504818;28;20252;-80
2022/11/27 08:11:23;;;;;;;73.10;43.10;;;3.50;99.90;;;;;;10519411;28;20202;-80
2022/11/27 08:16:44;;;;;;;82.60;49.00;;;3.50;99.90;;;;;;10504295;28;20250;-79
2022/11/27 08:22:05;;;;;;;87.77;50.30;;;3.50;99.90;;;;;;10518736;28;20279;-79
2022/11/27 08:27:27;;;;;;;55.70;35.40;;;3.60;99.90;;;;;;10504382;28;20219;-82
2022/11/27 08:32:48;;;;;;;63.30;36.93;;;3.60;99.90;;;;;;10508501;28;20192;-79
2022/11/27 08:38:09;;;;;;;65.63;41.70;;;3.70;99.90;;;;;;10527678;28;20243;-81
2022/11/27 08:43:31;;;;;;;42.63;27.67;;;3.80;99.90;;;;;;10531869;28;20191;-80
2022/11/27 08:48:52;;;;;;;34.60;22.17;;;3.90;99.90;;;;;;10529261;28;20201;-80
2022/11/27 08:54:13;;;;;;;36.50;22.13;;;4.00;99.90;;;;;;10512142;28;20201;-80
2022/11/27 08:59:34;;;;;;;72.50;37.57;;;4.10;99.90;;;;;;10512015;28;20240;-80
2022/11/27 09:04:55;;;;;;;77.00;45.77;;;4.20;99.90;;;;;;10525775;28;20203;-79
2022/11/27 09:10:16;;;;;;;69.17;39.20;;;4.20;99.90;;;;;;10497588;28;20208;-79
2022/11/27 09:15:37;;;;;;;49.57;29.37;;;4.20;96.70;;;;;;10510981;28;20228;-79
2022/11/27 09:21:01;;;;;;;40.23;22.70;;;4.30;87.80;;;;;;10525417;28;20226;-80
2022/11/27 09:26:24;;;;;;;34.70;19.53;;;4.40;94.40;;;;;;10511109;28;20193;-80
2022/11/27 09:31:45;;;;;;;30.90;18.63;;;4.40;87.10;;;;;;10510764;28;20203;-79
2022/11/27 09:37:07;;;;;;;30.80;18.37;;;4.40;86.40;;;;;;10524875;28;20250;-81
2022/11/27 09:42:47;;;;;;;33.07;20.47;;;4.40;57.60;;;;;;10520857;28;20246;-80
2022/11/27 09:48:13;;;;;;;46.47;23.20;;;4.30;70.60;;;;;;10547292;28;20192;-79
2022/11/27 09:53:46;;;;;;;48.97;28.40;;;4.30;73.00;;;;;;10510175;28;20531;-80
2022/11/27 09:59:42;;;;;;;50.60;30.03;;;4.30;96.30;;;;;;10495733;28;20229;-82
2022/11/27 10:05:18;;;;;;;49.50;29.23;;;4.30;99.90;;;;;;10509875;28;20252;-81
2022/11/27 10:10:43;;;;;;;44.07;25.00;;;4.40;99.90;;;;;;10523741;28;20549;-81
2022/11/27 10:16:22;;;;;;;29.97;17.67;;;4.50;99.90;;;;;;10508804;28;20242;-80
2022/11/27 10:21:53;;;;;;;28.47;15.77;;;4.60;99.90;;;;;;10509256;28;20519;-81
2022/11/27 10:27:33;;;;;;;29.70;18.17;;;4.70;99.90;;;;;;10509204;28;20208;-80
2022/11/27 10:32:57;;;;;;;30.00;17.77;;;4.80;99.90;;;;;;10508373;28;20210;-82
2022/11/27 10:38:21;;;;;;;27.33;16.73;;;4.90;94.80;;;;;;10507926;28;20296;-81
2022/11/27 10:43:43;;;;;;;27.27;17.53;;;5.00;93.10;;;;;;10542903;28;20474;-79
2022/11/27 10:49:05;;;;;;;28.67;16.33;;;5.10;51.60;;;;;;10522782;28;20199;-80
2022/11/27 10:54:31;;;;;;;60.47;27.23;;;5.20;28.90;;;;;;10520695;28;20197;-79
2022/11/27 11:00:21;;;;;;;90.77;36.83;;;5.30;9.70;;;;;;10506941;28;20578;-79
2022/11/27 11:05:56;;;;;;;102.60;45.03;;;5.30;27.00;;;;;;10507497;28;20194;-80
2022/11/27 11:11:37;;;;;;;113.53;48.73;;;5.30;3.20;;;;;;10521187;28;20194;-80
2022/11/27 11:16:58;;;;;;;86.33;35.50;;;5.40;39.40;;;;;;10505890;28;20242;-80
2022/11/27 11:22:20;;;;;;;66.83;30.20;;;5.40;9.00;;;;;;10520646;28;20529;-80
2022/11/27 11:27:44;;;;;;;56.93;27.57;;;5.30;9.20;;;;;;10520359;28;20387;-81
2022/11/27 11:33:11;;;;;;;50.33;27.37;;;5.40;7.80;;;;;;10506003;28;20198;-80
2022/11/27 11:38:32;;;;;;;48.63;28.73;;;5.40;1.00;;;;;;10505638;28;20256;-80
2022/11/27 11:44:00;;;;;;;53.57;32.37;;;5.40;1.00;;;;;;10542001;28;20271;-80
2022/11/27 11:49:27;;;;;;;50.67;30.93;;;5.40;30.70;;;;;;10533387;28;20190;-81
2022/11/27 11:55:21;;;;;;;46.53;27.60;;;5.40;20.90;;;;;;10519602;28;20202;-80
2022/11/27 12:00:46;;;;;;;47.23;26.57;;;5.40;27.00;;;;;;10489022;28;20241;-80
2022/11/27 12:06:39;;;;;;;48.27;26.23;;;5.40;42.90;;;;;;10507206;28;20316;-79
2022/11/27 12:12:25;;;;;;;50.73;29.07;;;5.60;29.40;;;;;;10519925;28;20218;-80
2022/11/27 12:17:55;;;;;;;67.03;37.40;;;5.70;25.90;;;;;;10504124;28;20245;-81
2022/11/27 12:23:32;;;;;;;54.50;31.57;;;5.90;1.00;;;;;;10504624;28;20497;-80
2022/11/27 12:29:14;;;;;;;75.17;42.73;;;6.20;1.00;;;;;;10504467;28;20404;-81
2022/11/27 12:34:57;;;;;;;92.80;48.27;;;6.20;1.00;;;;;;10490255;28;20360;-82
2022/11/27 12:40:26;;;;;;;78.73;45.00;;;6.10;1.00;;;;;;10519115;28;20227;-82
2022/11/27 12:46:17;;;;;;;99.63;58.90;;;6.20;1.00;;;;;;10542702;28;20201;-82
2022/11/27 12:51:53;;;;;;;90.07;51.70;;;6.20;1.00;;;;;;10512686;28;20251;-82
2022/11/27 12:57:20;;;;;;;90.07;48.13;;;6.10;1.00;;;;;;10501427;28;20244;-81
2022/11/27 13:03:03;;;;;;;61.30;36.27;;;6.10;1.00;;;;;;10484896;28;20214;-80
2022/11/27 13:09:00;;;;;;;50.13;29.07;;;6.10;1.00;;;;;;10470809;28;20260;-81
2022/11/27 13:14:26;;;;;;;66.43;31.40;;;5.90;1.00;;;;;;10321015;28;20288;-81
2022/11/27 13:19:49;;;;;;;61.33;28.90;;;5.70;1.00;;;;;;10337514;28;20236;-81
2022/11/27 13:25:13;;;;;;;46.03;23.03;;;5.50;1.00;;;;;;10341788;28;20219;-81
2022/11/27 13:30:37;;;;;;;30.17;18.67;;;5.40;1.00;;;;;;10341586;28;20212;-81
2022/11/27 13:35:59;;;;;;;26.83;16.07;;;5.40;23.30;;;;;;10357734;28;20671;-81
2022/11/27 13:41:38;;;;;;;29.93;17.67;;;5.30;23.10;;;;;;10334901;28;20272;-81
2022/11/27 13:47:15;;;;;;;61.53;31.67;;;5.30;32.50;;;;;;10378980;28;20209;-81
2022/11/27 13:52:37;;;;;;;70.33;36.40;;;5.20;41.30;;;;;;10471266;28;20222;-81
2022/11/27 13:58:00;;;;;;;69.87;36.20;;;5.00;37.60;;;;;;10468320;28;20256;-81
2022/11/27 14:03:24;;;;;;;67.80;33.03;;;4.90;70.40;;;;;;10468188;28;20229;-80
2022/11/27 14:08:53;;;;;;;56.67;27.27;;;4.90;99.90;;;;;;10468025;28;20277;-81
2022/11/27 14:14:26;;;;;;;37.77;20.93;;;4.70;99.10;;;;;;10487153;28;20281;-81
2022/11/27 14:19:59;;;;;;;27.80;17.60;;;4.60;99.90;;;;;;10506501;28;20245;-82
2022/11/27 14:25:32;;;;;;;28.77;17.77;;;4.60;99.90;;;;;;10508599;28;20232;-81
2022/11/27 14:30:56;;;;;;;43.03;22.13;;;4.60;99.90;;;;;;10522734;28;20280;-82
2022/11/27 14:36:21;;;;;;;51.60;26.13;;;4.50;99.90;;;;;;10508224;28;20271;-81
2022/11/27 14:41:42;;;;;;;42.77;24.70;;;4.40;99.90;;;;;;10526631;28;20234;-81
2022/11/27 14:47:07;;;;;;;48.83;26.13;;;4.30;99.90;;;;;;10540628;28;20190;-81
2022/11/27 14:52:28;;;;;;;51.10;27.03;;;4.30;99.90;;;;;;10507486;28;20197;-81
2022/11/27 14:57:50;;;;;;;78.87;34.83;;;4.20;99.90;;;;;;10507486;28;20521;-81
2022/11/27 15:03:17;;;;;;;89.07;40.70;;;4.20;99.90;;;;;;10507383;28;20205;-82
2022/11/27 15:08:38;;;;;;;89.40;39.10;;;4.20;99.90;;;;;;10522004;28;20388;-81
2022/11/27 15:14:01;;;;;;;69.13;31.93;;;4.20;99.90;;;;;;10507195;28;20195;-81
2022/11/27 15:19:29;;;;;;;83.83;36.70;;;4.20;99.90;;;;;;10520394;28;20547;-81
2022/11/27 15:25:01;;;;;;;80.00;36.30;;;4.20;99.90;;;;;;10506438;28;20201;-81
2022/11/27 15:30:22;;;;;;;81.87;43.47;;;4.20;99.90;;;;;;10506444;28;20492;-81
2022/11/27 15:35:43;;;;;;;88.17;45.50;;;4.10;99.90;;;;;;10520009;28;20206;-81
2022/11/27 15:41:17;;;;;;;55.53;29.70;;;4.10;99.90;;;;;;10478275;28;20263;-81
2022/11/27 15:46:40;;;;;;;46.00;25.03;;;4.00;99.90;;;;;;10483875;28;20188;-81
2022/11/27 15:52:02;;;;;;;69.77;34.73;;;3.90;99.90;;;;;;10505202;28;20189;-81
2022/11/27 15:57:25;;;;;;;46.60;27.93;;;3.90;99.90;;;;;;10491433;28;20437;-82
2022/11/27 16:02:46;;;;;;;56.80;30.20;;;3.90;99.90;;;;;;10491253;28;20193;-82
2022/11/27 16:08:10;;;;;;;57.27;31.20;;;3.80;99.90;;;;;;10505034;28;20280;-81
2022/11/27 16:13:31;;;;;;;58.53;32.03;;;3.90;99.90;;;;;;10504850;28;20195;-81
2022/11/27 16:18:59;;;;;;;54.63;31.00;;;3.90;99.90;;;;;;10518243;28;20599;-81
2022/11/27 16:24:20;;;;;;;53.67;31.13;;;3.80;99.90;;;;;;10519859;28;20376;-81
2022/11/27 16:29:42;;;;;;;41.93;25.10;;;3.80;99.90;;;;;;10518974;28;20191;-81
2022/11/27 16:35:04;;;;;;;37.07;22.43;;;3.70;99.90;;;;;;10504269;28;20198;-81
2022/11/27 16:40:27;;;;;;;41.83;23.17;;;3.80;99.90;;;;;;10476855;28;20252;-82
2022/11/27 16:45:48;;;;;;;39.67;23.07;;;3.80;99.90;;;;;;10553153;28;20192;-81
2022/11/27 16:51:12;;;;;;;43.40;24.47;;;3.80;99.90;;;;;;10490077;28;20271;-81
2022/11/27 16:56:35;;;;;;;44.63;25.30;;;3.90;99.90;;;;;;10526878;28;20189;-81
2022/11/27 17:01:57;;;;;;;38.43;24.30;;;3.90;99.90;;;;;;10511722;28;20465;-79
2022/11/27 17:07:18;;;;;;;38.97;24.43;;;3.90;99.90;;;;;;10497954;28;20454;-79
2022/11/27 17:12:40;;;;;;;33.77;20.27;;;3.80;99.90;;;;;;10497693;28;20207;-79
2022/11/27 17:18:03;;;;;;;36.80;22.23;;;3.70;99.90;;;;;;10496343;28;20562;-80
2022/11/27 17:23:25;;;;;;;35.93;22.87;;;3.60;99.90;;;;;;10525503;28;20514;-80
2022/11/27 17:28:46;;;;;;;38.67;25.57;;;3.70;99.90;;;;;;10497197;28;20221;-82
2022/11/27 17:34:12;;;;;;;39.97;22.20;;;3.70;99.90;;;;;;10496609;28;20204;-80
2022/11/27 17:39:33;;;;;;;34.53;20.37;;;3.70;99.90;;;;;;10482825;28;20233;-80
2022/11/27 17:44:55;;;;;;;36.50;21.50;;;3.60;99.90;;;;;;10543813;28;20550;-81
2022/11/27 17:50:16;;;;;;;36.20;21.13;;;3.60;99.90;;;;;;10515748;28;20554;-81
2022/11/27 17:55:37;;;;;;;41.07;26.87;;;3.60;99.90;;;;;;10510136;28;20205;-79
2022/11/27 18:00:59;;;;;;;46.20;28.30;;;3.60;99.90;;;;;;10509681;28;20278;-81
2022/11/27 18:06:21;;;;;;;44.30;25.13;;;3.60;99.90;;;;;;10495384;28;20200;-79
2022/11/27 18:11:44;;;;;;;39.87;24.40;;;3.50;99.90;;;;;;10509261;28;20200;-79
2022/11/27 18:17:06;;;;;;;47.40;26.27;;;3.50;99.90;;;;;;10508518;28;20240;-78
2022/11/27 18:22:27;;;;;;;55.43;31.20;;;3.50;99.90;;;;;;10523245;28;20437;-78
2022/11/27 18:27:48;;;;;;;51.33;28.17;;;3.50;99.90;;;;;;10524130;28;20195;-79
2022/11/27 18:33:09;;;;;;;54.53;30.37;;;3.50;99.90;;;;;;10508673;28;20200;-80
2022/11/27 18:38:31;;;;;;;38.10;24.07;;;3.50;99.90;;;;;;10522375;28;20537;-80
2022/11/27 18:43:53;;;;;;;36.03;24.23;;;3.50;99.90;;;;;;10515981;28;20208;-80
2022/11/27 18:49:14;;;;;;;39.60;25.40;;;3.40;99.90;;;;;;10536305;28;20239;-80
2022/11/27 18:54:36;;;;;;;41.67;25.70;;;3.50;99.90;;;;;;10521841;28;20387;-80
2022/11/27 18:59:58;;;;;;;50.03;29.93;;;3.40;99.90;;;;;;10522528;28;20457;-81
2022/11/27 19:05:21;;;;;;;51.70;30.70;;;3.40;99.90;;;;;;10507488;28;20229;-81
2022/11/27 19:10:42;;;;;;;33.17;22.63;;;3.50;99.90;;;;;;10507121;28;20210;-81
2022/11/27 19:16:06;;;;;;;41.07;27.43;;;3.50;99.90;;;;;;10491389;28;20459;-80
2022/11/27 19:21:29;;;;;;;42.77;29.37;;;3.40;99.90;;;;;;10506324;28;20254;-81
2022/11/27 19:26:51;;;;;;;37.77;25.13;;;3.40;99.90;;;;;;10506260;28;20450;-81
2022/11/27 19:32:12;;;;;;;40.23;26.77;;;3.40;99.90;;;;;;10520406;28;20203;-80
2022/11/27 19:37:34;;;;;;;45.50;28.30;;;3.40;99.90;;;;;;10506131;28;20195;-81
2022/11/27 19:42:56;;;;;;;40.60;25.93;;;3.40;99.90;;;;;;10519839;28;20199;-80
2022/11/27 19:48:20;;;;;;;36.97;23.87;;;3.30;99.90;;;;;;10536881;28;20246;-80
2022/11/27 19:53:43;;;;;;;36.43;24.43;;;3.40;99.90;;;;;;10505404;28;20197;-80
2022/11/27 19:59:05;;;;;;;54.10;33.13;;;3.30;99.90;;;;;;10504878;28;20530;-79
2022/11/27 20:04:27;;;;;;;52.00;29.67;;;3.30;99.90;;;;;;10505258;28;20309;-79
2022/11/27 20:09:48;;;;;;;55.17;34.17;;;3.30;99.90;;;;;;10505184;28;20193;-79
2022/11/27 20:15:15;;;;;;;42.43;27.40;;;3.30;99.90;;;;;;10504522;28;20204;-78
2022/11/27 20:20:36;;;;;;;40.40;25.87;;;3.40;99.90;;;;;;10504707;28;20550;-80
2022/11/27 20:25:57;;;;;;;42.13;24.50;;;3.40;99.90;;;;;;10504218;28;20223;-80
2022/11/27 20:31:25;;;;;;;40.97;26.23;;;3.30;99.90;;;;;;10490403;28;20262;-80
2022/11/27 20:36:48;;;;;;;45.37;28.70;;;3.30;99.90;;;;;;10532555;28;20192;-79
2022/11/27 20:42:09;;;;;;;55.77;33.47;;;3.30;99.90;;;;;;10531175;28;20247;-79
2022/11/27 20:47:31;;;;;;;61.50;34.93;;;3.30;99.90;;;;;;10532732;28;20272;-82
2022/11/27 20:52:52;;;;;;;62.80;32.37;;;3.30;99.90;;;;;;10476989;28;20192;-79
2022/11/27 20:58:13;;;;;;;49.53;26.10;;;3.30;99.90;;;;;;10462571;28;20211;-81
2022/11/27 21:03:35;;;;;;;45.33;26.63;;;3.30;99.90;;;;;;10479148;28;20201;-81
2022/11/27 21:09:00;;;;;;;36.60;22.90;;;3.30;99.90;;;;;;10476689;28;20271;-81
2022/11/27 21:14:22;;;;;;;41.30;23.57;;;3.30;99.90;;;;;;10476530;28;20192;-80
2022/11/27 21:19:43;;;;;;;47.30;27.20;;;3.30;99.90;;;;;;10486491;28;20240;-80
2022/11/27 21:25:05;;;;;;;55.67;31.30;;;3.30;99.90;;;;;;10503194;28;20195;-81
2022/11/27 21:30:26;;;;;;;54.03;30.23;;;3.30;99.90;;;;;;10503399;28;20394;-79
2022/11/27 21:35:54;;;;;;;47.37;27.47;;;3.30;99.90;;;;;;10503582;28;20203;-81
2022/11/27 21:41:17;;;;;;;48.40;27.83;;;3.30;99.90;;;;;;10466532;28;20221;-80
2022/11/27 21:46:38;;;;;;;58.23;27.73;;;3.30;99.90;;;;;;10560527;28;20194;-80
2022/11/27 21:52:00;;;;;;;86.13;39.03;;;3.30;99.90;;;;;;10468453;28;20219;-81
2022/11/27 21:57:24;;;;;;;65.53;35.87;;;3.30;99.90;;;;;;10469260;28;20197;-81
2022/11/27 22:02:46;;;;;;;47.33;26.40;;;3.30;99.90;;;;;;10496841;28;20270;-82
2022/11/27 22:08:07;;;;;;;42.00;23.03;;;3.30;99.90;;;;;;10481839;28;20203;-80
2022/11/27 22:13:46;;;;;;;38.90;22.33;;;3.30;99.90;;;;;;10467992;28;20251;-80
2022/11/27 22:19:08;;;;;;;40.17;22.50;;;3.30;99.90;;;;;;10501102;28;20236;-81
2022/11/27 22:24:29;;;;;;;44.93;25.63;;;3.30;99.90;;;;;;10508862;28;20218;-81
2022/11/27 22:29:51;;;;;;;46.43;26.20;;;3.30;99.90;;;;;;10522733;28;20192;-81
2022/11/27 22:35:12;;;;;;;42.00;25.67;;;3.30;99.90;;;;;;10494386;28;20382;-80
2022/11/27 22:40:34;;;;;;;38.93;22.60;;;3.30;99.90;;;;;;10508099;28;20220;-80
2022/11/27 22:45:55;;;;;;;39.63;23.57;;;3.20;99.90;;;;;;10547073;28;20265;-78
2022/11/27 22:51:16;;;;;;;41.20;23.27;;;3.30;99.90;;;;;;10515843;28;20200;-81
2022/11/27 22:56:37;;;;;;;39.67;22.57;;;3.20;99.90;;;;;;10508030;28;20505;-79
2022/11/27 23:01:58;;;;;;;44.63;25.40;;;3.20;99.90;;;;;;10507384;28;20227;-79
2022/11/27 23:07:19;;;;;;;42.40;24.10;;;3.20;99.90;;;;;;10506915;28;20266;-81
2022/11/27 23:12:43;;;;;;;42.17;24.30;;;3.20;99.90;;;;;;10506882;28;20395;-80
2022/11/27 23:18:04;;;;;;;53.93;26.90;;;3.20;99.90;;;;;;10506433;28;20231;-81
2022/11/27 23:23:25;;;;;;;47.77;26.80;;;3.20;99.90;;;;;;10522010;28;20219;-81
2022/11/27 23:28:49;;;;;;;48.67;25.80;;;3.20;99.90;;;;;;10506447;28;20250;-81
2022/11/27 23:34:12;;;;;;;45.97;24.67;;;3.20;99.90;;;;;;10506335;28;20458;-81
2022/11/27 23:39:34;;;;;;;46.00;27.20;;;3.20;99.90;;;;;;10519872;28;20231;-81
2022/11/27 23:44:55;;;;;;;48.63;26.00;;;3.20;99.90;;;;;;10536658;28;20274;-81
2022/11/27 23:50:16;;;;;;;50.93;25.53;;;3.30;99.90;;;;;;10511216;28;20222;-81
2022/11/27 23:55:37;;;;;;;57.87;28.67;;;3.30;99.90;;;;;;10506053;28;20229;-80
